This is the latest recevied weather packets stored in our database for station/object N3WAX-1. If no packets are shown the sender has not sent any weather packets the latest 10 day(s).
| Time | Temp. | Humidity | Pressure | Rain* | Wind** | Luminosity | Snow |
|---|---|---|---|---|---|---|---|
| 1777329340 | 18.89° C | 48% | 1022.8 hPa | 0 mm | - | 151 W/m² | - |
| 1777328728 | 19.44° C | 49% | 1022.7 hPa | 0 mm | - | 193 W/m² | - |
| 1777323858 | 20° C | 51% | 1023 hPa | 0 mm | - | 188 W/m² | - |
| 1777323253 | 20° C | 54% | 1023 hPa | 0 mm | - | 427 W/m² | - |
| 1777322655 | 20° C | 54% | 1023 hPa | 0 mm | - | 457 W/m² | - |
| 1777320251 | 20.56° C | 54% | 1023.2 hPa | 0 mm | - | 740 W/m² | - |
| 1777318587 | 20.56° C | 54% | 1023.2 hPa | 0 mm | - | 772 W/m² | - |
| 1777318143 | 20° C | 56% | 1023.3 hPa | 0 mm | - | 786 W/m² | - |
| 1777317243 | 20° C | 56% | 1023.2 hPa | 0 mm | - | 849 W/m² | - |
| 1777316198 | 20° C | 54% | 1023.3 hPa | 0 mm | - | 851 W/m² | - |
| 1777314543 | 19.44° C | 57% | 1023.2 hPa | 0 mm | - | 900 W/m² | - |
| 1777312086 | 19.44° C | 61% | 1023.6 hPa | 0 mm | - | 911 W/m² | - |
| 1777311186 | 19.44° C | 60% | 1023.8 hPa | 0 mm | - | 947 W/m² | - |
| 1777306265 | 17.78° C | 60% | 1024.3 hPa | 0 mm | - | 916 W/m² | - |
| 1777304730 | 17.78° C | 65% | 1024.4 hPa | 0 mm | - | 895 W/m² | - |
| 1777301987 | 16.67° C | 75% | 1024.6 hPa | 0 mm | - | 828 W/m² | - |
| 1777301387 | 16.11° C | 74% | 1024.6 hPa | 0 mm | - | 805 W/m² | - |
| 1777300187 | 15.56° C | 75% | 1024.7 hPa | 0 mm | - | 761 W/m² | - |
| 1777298985 | 15° C | 75% | 1024.7 hPa | 0 mm | - | 719 W/m² | - |
| 1777295529 | 12.78° C | 85% | 1024.4 hPa | 0 mm | - | 540 W/m² | - |
| 1777292681 | 10° C | 97% | 1024.1 hPa | 0 mm | - | 366 W/m² | - |
| 1777291183 | 8.33° C | 98% | 1023.9 hPa | 0 mm | - | 192 W/m² | - |
| 1777289666 | 7.78° C | 98% | 1023.5 hPa | 0 mm | - | 155 W/m² | - |
| 1777289349 | 6.67° C | 98% | 1023.4 hPa | 0 mm | - | 130 W/m² | - |
| 1777287208 | 4.44° C | 97% | 1023 hPa | 0 mm | - | 77 W/m² | - |
* Rain latest hour (hover to see other rain measurements)
** Current wind speed in m/s (hover to see current wind gust speed)